Time;durP1;ratioP1;P1;durP2;ratioP2;P2;SDS_P1;SDS_P2;PMS_P1;PMS_P2;Temp;Humidity;BMP_temperature;BMP_pressure;BME280_temperature;BME280_humidity;BME280_pressure;Samples;Min_cycle;Max_cycle;Signal;HPM_P1;HPM_P2
2022/01/25 00:08:22;;;;;;;;;;;22.00;53.90;;;;;;5017279;28;1047;-38
2022/01/25 00:15:49;;;;;;;;;;;22.00;53.90;;;;;;5015923;28;724;-38
2022/01/25 00:26:38;;;;;;;;;;;21.90;53.80;;;;;;5016498;28;983;-37
2022/01/25 00:29:08;;;;;;;;;;;21.90;53.90;;;;;;5015460;28;1019;-38
2022/01/25 00:31:36;;;;;;;;;;;21.90;53.90;;;;;;5016507;28;976;-37
2022/01/25 00:34:03;;;;;;;;;;;21.90;53.90;;;;;;5015124;28;1906;-37
2022/01/25 00:36:31;;;;;;;;;;;21.90;53.90;;;;;;5016043;28;976;-37
2022/01/25 00:38:58;;;;;;;;;;;21.90;54.00;;;;;;5016737;28;945;-38
2022/01/25 00:41:26;;;;;;;;;;;21.90;54.00;;;;;;5016833;28;1078;-36
2022/01/25 00:43:53;;;;;;;;;;;21.80;53.90;;;;;;5016220;28;989;-38
2022/01/25 00:46:22;;;;;;;;;;;21.90;53.90;;;;;;5016155;28;1061;-37
2022/01/25 00:48:52;;;;;;;;;;;21.90;53.90;;;;;;5016454;28;985;-36
2022/01/25 00:51:35;;;;;;;;;;;21.90;53.90;;;;;;5015775;28;988;-37
2022/01/25 00:54:10;;;;;;;;;;;21.80;53.80;;;;;;5016117;28;1969;-37
2022/01/25 00:56:38;;;;;;;;;;;21.80;53.80;;;;;;5015474;28;1040;-36
2022/01/25 00:59:07;;;;;;;;;;;21.80;53.90;;;;;;5016099;28;1032;-38
2022/01/25 01:01:34;;;;;;;;;;;21.90;53.80;;;;;;5016120;28;1040;-37
2022/01/25 01:04:01;;;;;;;;;;;21.80;53.80;;;;;;5015992;28;1007;-37
2022/01/25 01:06:27;;;;;;;;;;;21.80;53.90;;;;;;5015450;28;1043;-38
2022/01/25 01:08:54;;;;;;;;;;;21.80;53.90;;;;;;5015814;28;929;-37
2022/01/25 01:11:28;;;;;;;;;;;21.80;53.90;;;;;;5015912;28;1193;-37
2022/01/25 01:14:02;;;;;;;;;;;21.80;53.80;;;;;;5015504;28;1906;-37
2022/01/25 01:30:33;;;;;;;;;;;21.70;53.90;;;;;;5015796;28;604;-37
2022/01/25 01:33:26;;;;;;;;;;;21.70;53.80;;;;;;5016129;28;1906;-37
2022/01/25 01:41:44;;;;;;;;;;;21.80;53.90;;;;;;5018983;28;1337;-37
2022/01/25 01:44:20;;;;;;;;;;;21.70;53.80;;;;;;5015775;28;1034;-38
2022/01/25 01:47:00;;;;;;;;;;;21.70;53.80;;;;;;5015780;28;1216;-38
2022/01/25 01:49:28;;;;;;;;;;;21.60;55.10;;;;;;5015241;28;988;-38
2022/01/25 01:51:55;;;;;;;;;;;21.60;54.00;;;;;;5014065;28;1014;-38
2022/01/25 01:54:22;;;;;;;;;;;21.70;53.90;;;;;;5015121;28;1972;-38
2022/01/25 01:56:50;;;;;;;;;;;21.70;53.80;;;;;;5015394;28;997;-38
2022/01/25 01:59:18;;;;;;;;;;;21.70;53.90;;;;;;5015425;28;996;-38
2022/01/25 02:01:47;;;;;;;;;;;21.60;54.00;;;;;;5016243;28;976;-39
2022/01/25 02:04:15;;;;;;;;;;;21.60;54.00;;;;;;5016630;28;1020;-38
2022/01/25 02:06:41;;;;;;;;;;;21.60;54.00;;;;;;5015938;28;1000;-38
2022/01/25 02:09:09;;;;;;;;;;;21.60;54.00;;;;;;5015638;28;921;-38
2022/01/25 02:11:35;;;;;;;;;;;21.60;54.00;;;;;;5015916;28;981;-37
2022/01/25 02:14:06;;;;;;;;;;;21.60;54.00;;;;;;5015374;28;1907;-38
2022/01/25 02:16:41;;;;;;;;;;;21.60;53.90;;;;;;5015692;28;992;-38
2022/01/25 02:24:49;;;;;;;;;;;21.60;53.90;;;;;;5015408;28;698;-38
2022/01/25 02:27:16;;;;;;;;;;;21.60;53.90;;;;;;5015821;28;991;-38
2022/01/25 02:29:43;;;;;;;;;;;21.60;53.90;;;;;;5015322;28;1000;-38
2022/01/25 02:32:10;;;;;;;;;;;21.60;53.90;;;;;;5015248;28;996;-38
2022/01/25 02:34:37;;;;;;;;;;;21.60;53.90;;;;;;5015480;28;1906;-38
2022/01/25 02:37:07;;;;;;;;;;;21.60;55.00;;;;;;5015691;28;933;-38
2022/01/25 02:39:34;;;;;;;;;;;21.60;53.90;;;;;;5014814;28;995;-38
2022/01/25 02:42:01;;;;;;;;;;;21.50;53.90;;;;;;5015547;28;913;-38
2022/01/25 02:44:29;;;;;;;;;;;21.60;54.00;;;;;;5015203;28;996;-38
2022/01/25 02:49:42;;;;;;;;;;;21.50;53.90;;;;;;5014947;28;706;-38
2022/01/25 02:52:10;;;;;;;;;;;21.50;53.90;;;;;;5017630;28;972;-39
2022/01/25 02:54:40;;;;;;;;;;;21.50;53.90;;;;;;5018446;28;1903;-38
2022/01/25 02:57:07;;;;;;;;;;;21.50;53.90;;;;;;5018663;28;1009;-38
2022/01/25 02:59:35;;;;;;;;;;;21.50;53.90;;;;;;5018678;28;1008;-39
2022/01/25 03:02:02;;;;;;;;;;;21.50;53.80;;;;;;5017964;28;980;-38
2022/01/25 03:04:29;;;;;;;;;;;21.50;53.80;;;;;;5018351;28;1000;-38
2022/01/25 03:06:56;;;;;;;;;;;21.50;53.80;;;;;;5018302;28;1187;-37
2022/01/25 03:09:24;;;;;;;;;;;21.50;53.90;;;;;;5018493;28;985;-39
2022/01/25 03:12:32;;;;;;;;;;;21.50;53.80;;;;;;5018416;28;983;-38
2022/01/25 03:15:22;;;;;;;;;;;21.50;53.80;;;;;;5018679;28;980;-38
2022/01/25 03:17:52;;;;;;;;;;;21.50;53.80;;;;;;5018365;28;1429;-38
2022/01/25 03:20:22;;;;;;;;;;;21.50;53.90;;;;;;5017970;28;1004;-38
2022/01/25 03:22:58;;;;;;;;;;;21.50;53.90;;;;;;5018392;28;1194;-38
2022/01/25 03:25:27;;;;;;;;;;;21.50;53.80;;;;;;5018043;28;912;-38
2022/01/25 03:27:55;;;;;;;;;;;21.40;53.80;;;;;;5018181;28;1048;-38
2022/01/25 03:30:22;;;;;;;;;;;21.50;53.90;;;;;;5017965;28;996;-39
2022/01/25 03:32:48;;;;;;;;;;;21.50;53.70;;;;;;5018283;28;1906;-38
2022/01/25 03:35:15;;;;;;;;;;;21.50;53.80;;;;;;5017872;28;1016;-38
2022/01/25 03:37:42;;;;;;;;;;;21.50;53.80;;;;;;5017921;28;1118;-38
2022/01/25 03:40:09;;;;;;;;;;;21.50;53.70;;;;;;5017848;28;1030;-37
2022/01/25 03:42:39;;;;;;;;;;;21.40;53.80;;;;;;5017995;28;992;-37
2022/01/25 03:45:07;;;;;;;;;;;21.50;53.90;;;;;;5017427;28;1027;-36
2022/01/25 03:47:44;;;;;;;;;;;21.40;53.80;;;;;;5017992;28;1043;-38
2022/01/25 03:50:10;;;;;;;;;;;21.40;54.90;;;;;;5018084;28;993;-38
2022/01/25 03:52:37;;;;;;;;;;;21.40;53.80;;;;;;5017836;28;1082;-38
2022/01/25 03:55:04;;;;;;;;;;;21.50;53.80;;;;;;5017504;28;1915;-38
2022/01/25 03:57:31;;;;;;;;;;;21.40;53.80;;;;;;5017701;28;972;-38
2022/01/25 04:00:00;;;;;;;;;;;21.40;53.80;;;;;;5017547;28;938;-38
2022/01/25 04:02:28;;;;;;;;;;;21.40;53.90;;;;;;5017531;28;1008;-36
2022/01/25 04:04:56;;;;;;;;;;;21.40;53.90;;;;;;5017859;28;1087;-38
2022/01/25 04:07:30;;;;;;;;;;;21.40;53.90;;;;;;5017812;28;917;-38
2022/01/25 04:09:57;;;;;;;;;;;21.40;53.80;;;;;;5017553;28;999;-38
2022/01/25 04:12:24;;;;;;;;;;;21.40;53.80;;;;;;5017766;28;993;-38
2022/01/25 04:14:51;;;;;;;;;;;21.40;53.90;;;;;;5017198;28;1989;-38
2022/01/25 04:17:21;;;;;;;;;;;21.40;53.90;;;;;;5017378;28;995;-37
2022/01/25 04:20:09;;;;;;;;;;;21.40;53.70;;;;;;5017482;28;941;-39
2022/01/25 04:25:19;;;;;;;;;;;21.40;53.70;;;;;;5016583;28;680;-38
2022/01/25 04:27:45;;;;;;;;;;;21.40;53.80;;;;;;5016708;28;996;-38
2022/01/25 04:30:12;;;;;;;;;;;21.40;53.80;;;;;;5016883;28;944;-39
2022/01/25 04:32:47;;;;;;;;;;;21.40;53.80;;;;;;5017281;28;1027;-38
2022/01/25 04:35:29;;;;;;;;;;;21.40;53.70;;;;;;5016059;28;1961;-37
2022/01/25 04:49:05;;;;;;;;;;;21.40;53.80;;;;;;5015427;28;663;-37
2022/01/25 04:51:54;;;;;;;;;;;21.60;53.60;;;;;;5015774;28;1422;-38
2022/01/25 04:54:31;;;;;;;;;;;21.70;53.40;;;;;;5015673;28;1985;-38
2022/01/25 04:57:09;;;;;;;;;;;21.90;53.20;;;;;;5016110;28;990;-38
2022/01/25 04:59:41;;;;;;;;;;;22.10;53.00;;;;;;5015285;28;960;-36
2022/01/25 05:02:13;;;;;;;;;;;22.10;54.10;;;;;;5015919;28;1021;-41
2022/01/25 05:04:45;;;;;;;;;;;22.10;53.00;;;;;;5015784;28;909;-39
2022/01/25 05:07:25;;;;;;;;;;;22.20;53.10;;;;;;5015570;28;1011;-36
2022/01/25 05:09:53;;;;;;;;;;;22.20;53.10;;;;;;5015738;28;974;-36
2022/01/25 05:12:30;;;;;;;;;;;22.20;53.10;;;;;;5015475;28;932;-38
2022/01/25 05:14:59;;;;;;;;;;;22.20;53.20;;;;;;5014857;28;1898;-37
2022/01/25 05:17:35;;;;;;;;;;;22.20;53.20;;;;;;5014703;28;987;-38
2022/01/25 05:22:43;;;;;;;;;;;22.20;53.50;;;;;;5015726;28;904;-38
2022/01/25 05:25:10;;;;;;;;;;;22.20;53.50;;;;;;5015739;28;1394;-38
2022/01/25 05:27:37;;;;;;;;;;;22.10;53.60;;;;;;5015250;28;985;-37
2022/01/25 05:30:04;;;;;;;;;;;22.20;53.50;;;;;;5015446;28;969;-38
2022/01/25 05:32:34;;;;;;;;;;;22.30;53.20;;;;;;5014741;28;956;-38
2022/01/25 05:35:01;;;;;;;;;;;22.30;53.30;;;;;;5015269;28;1906;-38
2022/01/25 05:37:31;;;;;;;;;;;22.30;53.30;;;;;;5015318;28;1002;-38
2022/01/25 05:40:00;;;;;;;;;;;22.30;53.30;;;;;;5015123;28;940;-38
2022/01/25 05:45:19;;;;;;;;;;;22.20;53.50;;;;;;5013701;28;1426;-37
2022/01/25 05:47:45;;;;;;;;;;;22.20;53.30;;;;;;5015163;28;979;-38
2022/01/25 05:50:13;;;;;;;;;;;22.20;53.40;;;;;;5013243;28;1019;-38
2022/01/25 05:52:41;;;;;;;;;;;22.20;53.30;;;;;;5015119;28;1035;-38
2022/01/25 05:55:09;;;;;;;;;;;22.20;53.50;;;;;;5015035;28;1948;-36
2022/01/25 05:57:36;;;;;;;;;;;22.20;53.40;;;;;;5015463;28;992;-36
2022/01/25 06:00:04;;;;;;;;;;;22.20;53.40;;;;;;5015210;28;924;-37
2022/01/25 06:02:32;;;;;;;;;;;22.20;53.50;;;;;;5013861;28;906;-37
2022/01/25 06:04:59;;;;;;;;;;;22.20;53.50;;;;;;5014725;28;1012;-37
2022/01/25 06:07:26;;;;;;;;;;;22.20;53.40;;;;;;5014059;28;1011;-37
2022/01/25 06:09:55;;;;;;;;;;;22.30;53.30;;;;;;5014998;28;1035;-37
2022/01/25 06:12:21;;;;;;;;;;;22.40;53.20;;;;;;5014518;28;1010;-37
2022/01/25 06:14:48;;;;;;;;;;;22.20;53.30;;;;;;5014584;28;1906;-39
2022/01/25 06:17:15;;;;;;;;;;;22.00;53.60;;;;;;5014565;28;1012;-36
2022/01/25 06:19:43;;;;;;;;;;;22.00;54.00;;;;;;5011967;28;925;-36
2022/01/25 06:22:10;;;;;;;;;;;22.00;54.40;;;;;;5013509;28;1107;-37
2022/01/25 06:24:37;;;;;;;;;;;22.10;53.70;;;;;;5012601;28;925;-35
2022/01/25 06:27:05;;;;;;;;;;;22.10;53.60;;;;;;5016190;28;992;-35
2022/01/25 06:29:32;;;;;;;;;;;22.30;53.40;;;;;;5015529;28;933;-36
2022/01/25 06:32:00;;;;;;;;;;;22.20;53.50;;;;;;5016561;28;969;-35
2022/01/25 06:34:26;;;;;;;;;;;22.20;53.40;;;;;;5016215;28;1903;-36
2022/01/25 06:36:53;;;;;;;;;;;22.10;53.40;;;;;;5015893;28;1000;-36
2022/01/25 06:39:20;;;;;;;;;;;22.10;53.50;;;;;;5016087;28;991;-39
2022/01/25 06:41:47;;;;;;;;;;;22.20;53.50;;;;;;5014960;28;952;-40
2022/01/25 06:44:15;;;;;;;;;;;22.20;53.40;;;;;;5017416;28;973;-40
2022/01/25 06:46:41;;;;;;;;;;;22.20;53.70;;;;;;5017099;28;1189;-39
2022/01/25 06:49:08;;;;;;;;;;;22.20;53.60;;;;;;5016823;28;1178;-39
2022/01/25 06:51:35;;;;;;;;;;;22.30;53.40;;;;;;5015706;28;1011;-44
2022/01/25 06:54:02;;;;;;;;;;;22.20;53.60;;;;;;5016714;28;1902;-38
2022/01/25 06:56:28;;;;;;;;;;;22.10;53.70;;;;;;5016119;28;964;-39
2022/01/25 06:58:55;;;;;;;;;;;22.20;53.70;;;;;;5016251;28;941;-37
2022/01/25 07:01:24;;;;;;;;;;;22.10;53.60;;;;;;5016024;28;1041;-35
2022/01/25 07:03:50;;;;;;;;;;;22.20;53.90;;;;;;5016448;28;999;-35
2022/01/25 07:06:17;;;;;;;;;;;22.20;53.60;;;;;;5016462;28;1131;-35
2022/01/25 07:08:45;;;;;;;;;;;22.20;53.50;;;;;;5015890;28;1059;-35
2022/01/25 07:11:11;;;;;;;;;;;22.20;53.50;;;;;;5016135;28;1035;-36
2022/01/25 07:13:38;;;;;;;;;;;22.20;53.40;;;;;;5017218;28;957;-36
2022/01/25 07:16:05;;;;;;;;;;;22.20;53.50;;;;;;5016270;28;1973;-37
2022/01/25 07:18:33;;;;;;;;;;;22.10;53.70;;;;;;5016857;28;912;-37
2022/01/25 07:21:00;;;;;;;;;;;22.10;53.70;;;;;;5016478;28;991;-36
2022/01/25 07:23:27;;;;;;;;;;;22.10;53.70;;;;;;5016432;28;976;-35
2022/01/25 07:25:54;;;;;;;;;;;22.10;53.70;;;;;;5016079;28;1817;-37
2022/01/25 07:28:20;;;;;;;;;;;22.10;53.50;;;;;;5014613;28;1013;-36
2022/01/25 07:30:47;;;;;;;;;;;22.10;53.50;;;;;;5014151;28;1027;-33
2022/01/25 07:33:14;;;;;;;;;;;22.00;53.40;;;;;;5015356;28;949;-34
2022/01/25 07:35:42;;;;;;;;;;;22.10;53.40;;;;;;5013178;28;1969;-36
2022/01/25 07:38:09;;;;;;;;;;;22.00;53.50;;;;;;5013214;28;932;-36
2022/01/25 07:40:37;;;;;;;;;;;22.10;53.50;;;;;;5014094;28;925;-37
2022/01/25 07:43:04;;;;;;;;;;;22.10;53.20;;;;;;5013834;28;944;-36
2022/01/25 07:45:35;;;;;;;;;;;22.00;53.40;;;;;;5013446;28;1296;-35
2022/01/25 07:48:01;;;;;;;;;;;22.00;53.50;;;;;;5014467;28;993;-36
2022/01/25 07:50:28;;;;;;;;;;;21.90;53.60;;;;;;5012760;28;936;-35
2022/01/25 07:52:57;;;;;;;;;;;21.90;53.70;;;;;;5014032;28;1068;-36
2022/01/25 07:55:23;;;;;;;;;;;21.90;53.70;;;;;;5013524;28;1914;-36
2022/01/25 07:57:50;;;;;;;;;;;21.90;53.60;;;;;;5014274;28;1048;-35
2022/01/25 08:00:17;;;;;;;;;;;21.90;53.70;;;;;;5014224;28;936;-39
2022/01/25 08:02:45;;;;;;;;;;;21.90;53.70;;;;;;5013004;28;1031;-37
2022/01/25 08:05:12;;;;;;;;;;;21.90;53.60;;;;;;5014851;28;976;-37
2022/01/25 08:07:39;;;;;;;;;;;21.80;53.70;;;;;;5012993;28;1001;-36
2022/01/25 08:10:08;;;;;;;;;;;21.80;53.60;;;;;;5013772;28;965;-35
2022/01/25 08:12:35;;;;;;;;;;;21.80;53.60;;;;;;5013362;28;1006;-37
2022/01/25 08:15:03;;;;;;;;;;;21.90;53.60;;;;;;5013366;28;1899;-36
2022/01/25 08:17:30;;;;;;;;;;;21.80;53.70;;;;;;5013401;28;964;-37
2022/01/25 08:19:57;;;;;;;;;;;21.80;53.60;;;;;;5013994;28;936;-37
2022/01/25 08:22:24;;;;;;;;;;;21.80;53.70;;;;;;5014993;28;972;-37
2022/01/25 08:24:51;;;;;;;;;;;21.90;53.40;;;;;;5015401;28;987;-36
2022/01/25 08:27:20;;;;;;;;;;;21.80;53.50;;;;;;5014856;28;1032;-37
2022/01/25 08:29:47;;;;;;;;;;;21.80;53.70;;;;;;5013432;28;945;-37
2022/01/25 08:32:13;;;;;;;;;;;21.80;53.60;;;;;;5014325;28;1069;-36
2022/01/25 08:34:40;;;;;;;;;;;21.80;53.60;;;;;;5014735;28;1927;-34
2022/01/25 08:37:07;;;;;;;;;;;21.70;53.60;;;;;;5015159;28;1001;-36
2022/01/25 08:39:34;;;;;;;;;;;21.80;53.60;;;;;;5015266;28;985;-35
2022/01/25 08:42:01;;;;;;;;;;;21.70;53.50;;;;;;5015032;28;1024;-36
2022/01/25 08:44:29;;;;;;;;;;;21.70;53.60;;;;;;5015550;28;933;-36
2022/01/25 08:46:55;;;;;;;;;;;21.70;53.50;;;;;;5014854;28;1015;-37
2022/01/25 08:49:22;;;;;;;;;;;21.70;53.60;;;;;;5014308;28;1016;-37
2022/01/25 08:51:49;;;;;;;;;;;21.70;53.70;;;;;;5015394;28;902;-37
2022/01/25 08:54:16;;;;;;;;;;;21.70;53.60;;;;;;5015040;28;1914;-36
2022/01/25 08:56:43;;;;;;;;;;;21.70;53.50;;;;;;5015217;28;1023;-37
2022/01/25 08:59:10;;;;;;;;;;;21.70;53.50;;;;;;5014443;28;979;-36
2022/01/25 09:01:38;;;;;;;;;;;21.60;53.50;;;;;;5014090;28;998;-36
2022/01/25 09:04:05;;;;;;;;;;;21.60;53.60;;;;;;5014727;28;1007;-36
2022/01/25 09:06:32;;;;;;;;;;;21.60;53.60;;;;;;5014325;28;1011;-36
2022/01/25 09:09:00;;;;;;;;;;;21.60;53.50;;;;;;5013828;28;1008;-36
2022/01/25 09:11:27;;;;;;;;;;;21.60;53.50;;;;;;5014339;28;996;-34
2022/01/25 09:13:54;;;;;;;;;;;21.60;53.60;;;;;;5014158;28;968;-36
2022/01/25 09:16:20;;;;;;;;;;;21.60;53.60;;;;;;5014876;28;1910;-36
2022/01/25 09:18:48;;;;;;;;;;;21.60;53.60;;;;;;5014665;28;869;-35
2022/01/25 09:21:15;;;;;;;;;;;21.60;53.50;;;;;;5014872;28;1844;-36
2022/01/25 09:23:42;;;;;;;;;;;21.60;53.50;;;;;;5014435;28;1000;-36
2022/01/25 09:26:09;;;;;;;;;;;21.60;53.40;;;;;;5014186;28;972;-36
2022/01/25 09:28:35;;;;;;;;;;;21.60;53.50;;;;;;5014150;28;1012;-35
2022/01/25 09:31:02;;;;;;;;;;;21.60;53.60;;;;;;5013959;28;992;-36
2022/01/25 09:33:29;;;;;;;;;;;21.60;54.60;;;;;;5014215;28;972;-37
2022/01/25 09:35:57;;;;;;;;;;;21.60;53.50;;;;;;5013857;28;1906;-37
2022/01/25 09:38:25;;;;;;;;;;;21.60;53.60;;;;;;5014187;28;999;-37
2022/01/25 09:40:52;;;;;;;;;;;21.60;53.60;;;;;;5014533;28;1027;-35
2022/01/25 09:43:20;;;;;;;;;;;21.60;53.50;;;;;;5014531;28;980;-37
2022/01/25 09:45:47;;;;;;;;;;;21.60;53.60;;;;;;5014314;28;1782;-36
2022/01/25 09:48:15;;;;;;;;;;;21.60;53.50;;;;;;5014064;28;1011;-36
2022/01/25 09:50:42;;;;;;;;;;;21.60;53.50;;;;;;5013950;28;953;-37
2022/01/25 09:53:10;;;;;;;;;;;21.50;53.40;;;;;;5012971;28;929;-37
2022/01/25 09:55:39;;;;;;;;;;;21.60;53.50;;;;;;5012940;28;1902;-37
2022/01/25 09:58:06;;;;;;;;;;;21.60;53.50;;;;;;5013236;28;1032;-36
2022/01/25 10:00:33;;;;;;;;;;;21.50;53.50;;;;;;5015098;28;984;-36
2022/01/25 10:03:08;;;;;;;;;;;21.50;53.50;;;;;;5018560;28;1032;-36
2022/01/25 10:05:37;;;;;;;;;;;21.50;53.50;;;;;;5018504;28;976;-36
2022/01/25 10:08:05;;;;;;;;;;;21.50;53.40;;;;;;5018961;28;941;-37
2022/01/25 10:10:34;;;;;;;;;;;21.50;53.50;;;;;;5017147;28;963;-36
2022/01/25 10:13:09;;;;;;;;;;;21.50;53.50;;;;;;5018104;28;1118;-37
2022/01/25 10:15:35;;;;;;;;;;;21.50;53.50;;;;;;5018768;28;1894;-36
2022/01/25 10:18:04;;;;;;;;;;;21.50;53.60;;;;;;5018739;28;993;-36
2022/01/25 10:20:32;;;;;;;;;;;21.50;53.60;;;;;;5018787;28;956;-36
2022/01/25 10:23:00;;;;;;;;;;;21.50;53.60;;;;;;5018754;28;1101;-36
2022/01/25 10:25:37;;;;;;;;;;;21.50;53.60;;;;;;5020162;28;1007;-36
2022/01/25 10:28:10;;;;;;;;;;;21.40;53.60;;;;;;5019294;28;1042;-36
2022/01/25 10:30:38;;;;;;;;;;;21.40;53.60;;;;;;5019294;28;889;-36
2022/01/25 10:33:16;;;;;;;;;;;21.50;53.60;;;;;;5017909;28;941;-35
2022/01/25 10:35:43;;;;;;;;;;;21.40;53.50;;;;;;5019905;28;1979;-36
2022/01/25 10:38:17;;;;;;;;;;;21.40;53.50;;;;;;5019317;28;1983;-36
2022/01/25 10:40:53;;;;;;;;;;;21.50;53.50;;;;;;5019887;28;1002;-34
2022/01/25 10:43:21;;;;;;;;;;;21.40;53.50;;;;;;5020507;28;1059;-37
2022/01/25 10:46:03;;;;;;;;;;;21.50;53.60;;;;;;5019362;28;1075;-37
2022/01/25 10:48:30;;;;;;;;;;;21.40;53.50;;;;;;5019218;28;1017;-36
2022/01/25 10:51:03;;;;;;;;;;;21.40;53.50;;;;;;5010919;28;1521;-37
2022/01/25 10:53:29;;;;;;;;;;;21.40;53.40;;;;;;4999267;28;1019;-37
2022/01/25 10:55:59;;;;;;;;;;;21.50;53.40;;;;;;5000170;28;1907;-37
2022/01/25 10:58:25;;;;;;;;;;;21.50;53.40;;;;;;4999951;28;993;-36
2022/01/25 11:00:52;;;;;;;;;;;21.50;53.40;;;;;;4999997;28;994;-37
2022/01/25 11:03:25;;;;;;;;;;;21.40;53.40;;;;;;4999760;28;1028;-37
2022/01/25 11:05:52;;;;;;;;;;;21.40;53.50;;;;;;4999382;28;980;-38
2022/01/25 11:08:19;;;;;;;;;;;21.40;53.40;;;;;;4999305;28;1044;-38
2022/01/25 11:10:52;;;;;;;;;;;21.40;53.40;;;;;;4999862;28;1806;-37
2022/01/25 11:13:36;;;;;;;;;;;21.40;53.50;;;;;;4995060;28;1031;-38
2022/01/25 11:16:04;;;;;;;;;;;21.40;53.40;;;;;;4996877;28;1906;-36
2022/01/25 11:18:31;;;;;;;;;;;21.40;53.50;;;;;;4996590;28;992;-37
2022/01/25 11:20:59;;;;;;;;;;;21.40;53.40;;;;;;4995981;28;987;-35
2022/01/25 11:23:26;;;;;;;;;;;21.40;53.40;;;;;;4996795;28;889;-35
2022/01/25 11:25:54;;;;;;;;;;;21.40;53.50;;;;;;4996544;28;992;-36
2022/01/25 11:28:23;;;;;;;;;;;21.40;53.50;;;;;;4997073;28;940;-38
2022/01/25 11:30:51;;;;;;;;;;;21.30;53.50;;;;;;4996947;28;1035;-37
2022/01/25 11:33:19;;;;;;;;;;;21.40;53.60;;;;;;4995459;28;1017;-36
2022/01/25 11:35:46;;;;;;;;;;;21.40;53.50;;;;;;4997184;28;1899;-36
2022/01/25 11:38:13;;;;;;;;;;;21.40;53.40;;;;;;4996323;28;994;-37
2022/01/25 11:40:40;;;;;;;;;;;21.40;53.40;;;;;;4996999;28;1132;-35
2022/01/25 11:43:08;;;;;;;;;;;21.40;53.40;;;;;;4996817;28;1007;-36
2022/01/25 11:45:38;;;;;;;;;;;21.40;53.50;;;;;;4995483;28;1095;-36
2022/01/25 11:48:05;;;;;;;;;;;21.40;53.40;;;;;;4995614;28;965;-36
2022/01/25 11:50:33;;;;;;;;;;;21.40;53.40;;;;;;4995041;28;941;-35
2022/01/25 11:53:05;;;;;;;;;;;21.40;53.30;;;;;;4995093;28;1001;-36
2022/01/25 11:55:34;;;;;;;;;;;21.30;53.30;;;;;;4995442;28;1898;-37
2022/01/25 11:58:03;;;;;;;;;;;21.40;54.50;;;;;;4995581;28;1003;-46
2022/01/25 12:00:39;;;;;;;;;;;21.40;53.30;;;;;;4994541;28;1017;-45
2022/01/25 12:03:19;;;;;;;;;;;21.40;53.40;;;;;;4994213;28;995;-46
2022/01/25 12:05:54;;;;;;;;;;;21.40;53.50;;;;;;4993550;28;971;-46
2022/01/25 12:08:27;;;;;;;;;;;21.30;53.40;;;;;;4993297;28;945;-46
2022/01/25 12:11:04;;;;;;;;;;;21.40;53.40;;;;;;4993497;28;1001;-46
2022/01/25 12:13:33;;;;;;;;;;;21.40;53.40;;;;;;4993945;28;932;-46
2022/01/25 12:16:18;;;;;;;;;;;21.40;53.40;;;;;;4994524;28;1899;-44
2022/01/25 12:18:57;;;;;;;;;;;21.40;53.40;;;;;;4994088;28;1020;-45
2022/01/25 12:21:38;;;;;;;;;;;21.40;53.40;;;;;;4993493;28;975;-43
2022/01/25 12:24:15;;;;;;;;;;;21.40;53.30;;;;;;4999545;28;1319;-43
2022/01/25 12:27:01;;;;;;;;;;;21.40;53.40;;;;;;4993480;28;937;-42
2022/01/25 12:29:32;;;;;;;;;;;21.40;53.30;;;;;;4994103;28;2189;-43
2022/01/25 12:32:23;;;;;;;;;;;21.40;53.20;;;;;;4992354;28;1005;-44
2022/01/25 12:35:01;;;;;;;;;;;21.40;53.20;;;;;;4992063;28;1029;-46
2022/01/25 12:37:53;;;;;;;;;;;21.40;53.30;;;;;;4993706;28;1906;-46
2022/01/25 12:40:31;;;;;;;;;;;21.40;53.40;;;;;;4994343;28;983;-48
2022/01/25 12:42:59;;;;;;;;;;;21.40;53.30;;;;;;4993777;28;1146;-46
2022/01/25 12:45:27;;;;;;;;;;;21.30;54.50;;;;;;4993579;28;1126;-46
2022/01/25 12:47:54;;;;;;;;;;;21.30;53.30;;;;;;4993397;28;988;-46
2022/01/25 12:50:22;;;;;;;;;;;21.30;53.40;;;;;;4994574;28;940;-45
2022/01/25 12:52:50;;;;;;;;;;;21.30;53.40;;;;;;4991273;28;1000;-46
2022/01/25 12:55:22;;;;;;;;;;;21.30;53.50;;;;;;4992566;28;905;-46
2022/01/25 12:57:50;;;;;;;;;;;21.30;53.50;;;;;;4992230;28;1977;-46
2022/01/25 13:00:17;;;;;;;;;;;21.30;53.50;;;;;;4994837;28;941;-47
2022/01/25 13:02:44;;;;;;;;;;;21.30;53.50;;;;;;4992961;28;1158;-47
2022/01/25 13:05:15;;;;;;;;;;;21.30;53.50;;;;;;4993960;28;968;-47
2022/01/25 13:07:43;;;;;;;;;;;21.30;53.40;;;;;;4993520;28;953;-46
2022/01/25 13:10:11;;;;;;;;;;;21.30;54.50;;;;;;4993437;28;949;-48
2022/01/25 13:12:55;;;;;;;;;;;21.30;53.30;;;;;;4993939;28;1035;-47
2022/01/25 13:15:50;;;;;;;;;;;21.40;53.30;;;;;;4994206;28;913;-46
2022/01/25 13:18:16;;;;;;;;;;;21.30;53.20;;;;;;4993595;28;1040;-37
2022/01/25 13:20:46;;;;;;;;;;;21.30;53.30;;;;;;4993841;28;993;-37
2022/01/25 13:23:14;;;;;;;;;;;21.30;54.40;;;;;;4993293;28;1008;-37
2022/01/25 13:25:53;;;;;;;;;;;21.30;53.40;;;;;;4994707;28;1023;-37
2022/01/25 13:28:36;;;;;;;;;;;21.30;53.40;;;;;;4991913;28;1013;-36
2022/01/25 13:31:06;;;;;;;;;;;21.30;53.40;;;;;;4993373;28;940;-38
2022/01/25 13:33:33;;;;;;;;;;;21.30;53.40;;;;;;4992389;28;1016;-35
2022/01/25 13:36:01;;;;;;;;;;;21.30;53.40;;;;;;4992600;28;1984;-37
2022/01/25 13:38:31;;;;;;;;;;;21.30;53.40;;;;;;4991528;28;1128;-37
2022/01/25 13:41:08;;;;;;;;;;;21.30;53.30;;;;;;4993933;28;961;-36
2022/01/25 13:46:22;;;;;;;;;;;21.30;53.40;;;;;;4992784;28;1209;-36
2022/01/25 13:48:50;;;;;;;;;;;21.30;53.30;;;;;;4993865;28;882;-36
2022/01/25 13:51:18;;;;;;;;;;;21.30;53.30;;;;;;4993245;28;1000;-39
2022/01/25 13:53:51;;;;;;;;;;;21.40;52.90;;;;;;4993468;28;937;-43
2022/01/25 13:56:18;;;;;;;;;;;21.60;54.20;;;;;;4993450;28;1981;-40
2022/01/25 13:58:47;;;;;;;;;;;21.40;53.00;;;;;;4993792;28;972;-40
2022/01/25 14:01:17;;;;;;;;;;;21.30;53.20;;;;;;4994072;28;892;-40
2022/01/25 14:03:45;;;;;;;;;;;21.40;53.20;;;;;;4994306;28;877;-40
2022/01/25 14:06:22;;;;;;;;;;;21.50;53.40;;;;;;4994393;28;977;-40
2022/01/25 14:08:51;;;;;;;;;;;21.70;53.10;;;;;;4993933;28;1043;-39
2022/01/25 14:11:22;;;;;;;;;;;21.70;52.80;;;;;;4994706;28;985;-39
2022/01/25 14:22:26;;;;;;;;;;;21.40;53.30;;;;;;4993619;28;1028;-38
2022/01/25 14:24:55;;;;;;;;;;;21.30;53.30;;;;;;4994061;28;913;-39
2022/01/25 14:27:23;;;;;;;;;;;21.30;53.50;;;;;;4992222;28;1064;-40
2022/01/25 14:29:52;;;;;;;;;;;21.30;53.50;;;;;;4991895;28;962;-39
2022/01/25 14:32:27;;;;;;;;;;;21.30;53.40;;;;;;4993924;28;1043;-39
2022/01/25 14:35:00;;;;;;;;;;;21.30;53.50;;;;;;4993035;28;1029;-47
2022/01/25 14:37:26;;;;;;;;;;;21.50;53.20;;;;;;4993506;28;1974;-36
2022/01/25 14:40:02;;;;;;;;;;;21.60;52.90;;;;;;4994265;28;1000;-36
2022/01/25 14:42:29;;;;;;;;;;;21.60;53.00;;;;;;4993738;28;1022;-37
2022/01/25 14:45:00;;;;;;;;;;;21.50;52.90;;;;;;4993458;28;1075;-38
2022/01/25 14:47:35;;;;;;;;;;;21.50;53.20;;;;;;4994491;28;989;-37
2022/01/25 14:50:01;;;;;;;;;;;21.50;53.10;;;;;;4996620;28;1696;-37
2022/01/25 14:52:28;;;;;;;;;;;21.40;53.00;;;;;;4996301;28;1055;-37
2022/01/25 14:54:56;;;;;;;;;;;21.40;53.20;;;;;;4997324;28;1042;-38
2022/01/25 14:57:30;;;;;;;;;;;21.40;53.20;;;;;;4996688;28;1914;-37
2022/01/25 15:00:00;;;;;;;;;;;21.40;53.10;;;;;;4995307;28;1013;-39
2022/01/25 15:02:27;;;;;;;;;;;21.40;54.40;;;;;;4995417;28;1005;-39
2022/01/25 15:04:55;;;;;;;;;;;21.30;53.20;;;;;;4994527;28;1004;-39
2022/01/25 15:07:22;;;;;;;;;;;21.40;53.10;;;;;;4995404;28;1001;-38
2022/01/25 15:09:53;;;;;;;;;;;21.40;53.20;;;;;;4996043;28;996;-39
2022/01/25 15:12:23;;;;;;;;;;;21.40;53.10;;;;;;4996634;28;1011;-38
2022/01/25 15:14:54;;;;;;;;;;;21.50;52.80;;;;;;4995499;28;846;-37
2022/01/25 15:17:21;;;;;;;;;;;21.40;53.10;;;;;;4994387;28;1985;-36
2022/01/25 15:19:48;;;;;;;;;;;21.30;53.10;;;;;;4991843;28;997;-37
2022/01/25 15:22:18;;;;;;;;;;;21.40;53.10;;;;;;4994320;28;994;-39
2022/01/25 15:24:46;;;;;;;;;;;21.30;53.30;;;;;;4995477;28;948;-38
2022/01/25 15:27:14;;;;;;;;;;;21.30;53.50;;;;;;4993845;28;901;-39
2022/01/25 15:29:42;;;;;;;;;;;21.30;53.70;;;;;;4995104;28;947;-37
2022/01/25 15:32:09;;;;;;;;;;;21.30;53.50;;;;;;4995012;28;968;-37
2022/01/25 15:34:39;;;;;;;;;;;21.30;53.60;;;;;;4994385;28;1870;-35
2022/01/25 15:37:05;;;;;;;;;;;21.30;53.70;;;;;;4994157;28;1911;-39
2022/01/25 15:39:32;;;;;;;;;;;21.30;53.80;;;;;;4993624;28;930;-38
2022/01/25 15:42:00;;;;;;;;;;;21.40;53.80;;;;;;4993846;28;980;-37
2022/01/25 15:44:35;;;;;;;;;;;21.40;53.70;;;;;;4993293;28;1021;-38
2022/01/25 15:47:05;;;;;;;;;;;21.50;53.50;;;;;;4995438;28;928;-48
2022/01/25 15:49:47;;;;;;;;;;;21.50;53.70;;;;;;5111938;27;1325;-46
2022/01/25 15:52:14;;;;;;;;;;;21.40;53.70;;;;;;5111749;28;908;-44
2022/01/25 15:54:42;;;;;;;;;;;21.40;55.10;;;;;;5111901;28;1007;-44
2022/01/25 15:57:10;;;;;;;;;;;21.40;54.20;;;;;;5111396;28;1005;-47
2022/01/25 15:59:38;;;;;;;;;;;21.50;54.20;;;;;;5039354;28;885;-46
2022/01/25 16:02:10;;;;;;;;;;;21.50;54.20;;;;;;5032380;28;1270;-45
2022/01/25 16:04:41;;;;;;;;;;;21.50;54.40;;;;;;5031276;28;961;-46
2022/01/25 16:07:10;;;;;;;;;;;21.50;54.20;;;;;;5031799;28;900;-45
2022/01/25 16:09:38;;;;;;;;;;;21.60;54.20;;;;;;5033276;28;1905;-46